Scroll down
FLIGHT INFORMATION
SAS Scandinavian Airlines

SAS1044

At Arrival Gate

ESSA
 ESNQ
DATE: 2020-07-30
GATE: 15
GATE DEPARTURE: 14:14
TAKEOFF: 14:35
DATE: 2020-07-30
GATE:  -
LANDING: 15:57
GATE ARRIVAL: 16:04
FLIGHT DATA
Crew: BIGSWEDE
Speed: 456 kts Altitude: 37000 ft
Stage Length: 495 nm
Route: ESSA SA551 SA564 SA709 SA710 SA855 LUMAX RESNA OSK RASEN REKMI OSKIR ITVAV VAGAS NQ704 NQ703 RW03
Block Time: 1.8 Flight Time: 1.4
Fuel Used: 9293 LB
TRACK DATA
50000 FT1000 KT
AIRCRAFT INFORMATION
Aircraft Type: B738
Registration: LN-RCN
SELCAL:  MSN/LN: 28318 / 529
Operator: SAS SCANDINAVIAN AIRLINES
Flights: 11 Block Time: 17.7 Flight Time: 14.5
Fuel Used: 93415 LB
  • DEPARTURE INFORMATION
    Date: 2020-07-30
    Airport: ESSA
    Gate: 15
    Gate Departure: 14:14
    Takeoff: 14:35
    ARRIVAL INFORMATION
    Date: 2020-07-30
    Airport: ESNQ
    Gate:  -
    Landing: 15:57
    Gate Arrival: 16:04
  • FLIGHT DATA
    Crew: BIGSWEDE
    Speed: 456 kts Altitude: 37000 ft
    Stage Length: 267 nm
    Route: ESSA SA551 SA564 SA709 SA710 SA855 LUMAX RESNA OSK RASEN REKMI OSKIR ITVAV VAGAS NQ704 NQ703 RW03
    Block Time: 1.8 Flight Time: 1.4
    Fuel Used: 9293 LB
  • AIRCRAFT INFORMATION
    Aircraft Type: B738
    Registration: LN-RCN
    SELCAL:  MSN/LN: 28318 / 529
    Operator: SAS Scandinavian Airlines
    Flights: 11 Block Time: 17.7 Flight Time: 14.5
    Fuel Used: 93415 LB

DATALINK LOG | Newest first | Current as of: 2020-09-28 19:09:10
LABEL SEQUENCE CONTENT Dn/Up
QD051916:04 6.5▼ Dn
QC591415:57▼ Dn
2U4500ESNQ 301520Z AUTO 07008KT 9999 FEW041/// 19/10 Q1010▲ Up
2S4500ESNQ▼ Dn
UM341440CRUISE CLIMB TO 370▲ Up
DM541430WHEN CAN WE EXPECT CRUISE CLIMB TO FL 370▼ Dn
2U0420ESNQ 301450Z AUTO 06009KT 030V090 9999 NCD 19/10 Q1010▲ Up
2S0420ESNQ▼ Dn
464602/OV LUMAX/10/10 /TM 1444 /FL210 /TP B738 /SK BKN /WX RN VIS CLR /TA -29 /WV 330/18 /TB MOD /RM NONE▼ Dn
QB365314:35▼ Dn
QA153214:14 15.8▼ Dn
2U5816ESSA 301350Z 24008KT 9999 FEW005 SCT062 BKN080 15/14 Q1003 TEMPO SHRA BKN030CB▲ Up
2S5816ESSA▼ Dn
A35321CLEARED TO ESNQ VIA LUMA5Q RESNA T317 VAGAS VAGA2R. SQUAWK .▲ Up
B35312ESSA ESNQ SAS1044 SAS B ▼ Dn
2U5211ESNQ 301320Z 06010KT 9999 SCT039 19/10 Q1009▲ Up
2S5211ESSA ESNQ▼ Dn
Q05110[LINK ACK]▲ Up
Q05110[LINK TEST]▼ Dn


AIRCRAFT HISTORY
FLIGHT DATE FLIGHT NO. ORIGIN DESTINATION ROUTE BLOCK TIME FLIGHT TIME FUEL USED (LB) PILOT
2020-09-24SAS35ESNU ESSA ESNU DEDIT SIPRI HMR ESSA1.20.95875BigSwede
2020-08-07SAS25ESNQ ESNU ESNQ TERPA KETEL ESNU10.86146BigSwede
2020-07-30SAS1044ESSA ESNQ ESSA SA551 SA564 SA709 SA710 SA855 LUMAX RESNA OSK RASEN REKMI OSKIR ITVAV VAGAS NQ704 NQ703 RW031.81.49293BigSwede
2020-06-27SAS414EKCH ESSA EKCH KEMAX NEXIL ROXEN DEKIK VEPIP BEDOS NEFYN MIKNA PELUP NILUG ESSA1.316605BigSwede
2020-02-20SAS1407ESSA EKCH 1.517235BigSwede
2020-01-24SAS1045ESNQ ESSA 1.81.47391BigSwede
2019-12-07SAS1207ENGM ESNQ 1.71.59123Douglas Morlan
2019-11-14SAS4431ENTC ENGM 2.5212569Kyle Rodgers
2019-11-14SAS4425ENSB ENTC 1.71.49089Kyle Rodgers
2019-11-14SAS4414ENTC ENSB 1.71.59499Kyle Rodgers
2019-11-14SAS4406ENGM ENTC 21.610589Kyle Rodgers